Time;durP1;ratioP1;P1;durP2;ratioP2;P2;SDS_P1;SDS_P2;PMS_P1;PMS_P2;Temp;Humidity;BMP_temperature;BMP_pressure;BME280_temperature;BME280_humidity;BME280_pressure;Samples;Min_cycle;Max_cycle;Signal;HPM_P1;HPM_P2
2023/01/03 00:00:15;;;;;;;4.20;2.70;;;15.60;99.90;;;;;;10326757;28;20205;-90
2023/01/03 00:05:18;;;;;;;3.30;2.67;;;15.60;99.90;;;;;;10289304;28;20279;-90
2023/01/03 00:10:20;;;;;;;3.73;2.93;;;15.60;99.90;;;;;;10330877;28;20624;-90
2023/01/03 00:15:23;;;;;;;3.10;2.30;;;15.40;99.90;;;;;;10331084;28;20338;-90
2023/01/03 00:20:26;;;;;;;5.30;3.17;;;15.20;99.90;;;;;;10319041;28;20208;-89
2023/01/03 00:25:28;;;;;;;3.43;2.87;;;15.50;99.90;;;;;;10336695;28;20200;-90
2023/01/03 00:30:31;;;;;;;2.67;2.43;;;15.50;99.90;;;;;;10326701;28;20273;-90
2023/01/03 00:35:34;;;;;;;3.10;2.80;;;15.60;99.90;;;;;;10293146;28;20232;-90
2023/01/03 00:40:36;;;;;;;2.67;2.23;;;15.70;99.90;;;;;;10291696;28;20599;-89
2023/01/03 00:45:39;;;;;;;2.97;2.37;;;16.00;99.90;;;;;;10290698;28;20241;-90
2023/01/03 00:50:41;;;;;;;2.80;2.23;;;15.50;99.90;;;;;;10289943;28;20268;-90
2023/01/03 00:55:44;;;;;;;6.03;2.67;;;15.60;99.90;;;;;;10273501;28;20745;-90
2023/01/03 01:00:47;;;;;;;3.23;2.10;;;15.50;99.90;;;;;;10290312;28;20626;-90
2023/01/03 01:05:49;;;;;;;5.50;2.20;;;15.20;99.90;;;;;;10293329;28;20238;-91
2023/01/03 01:11:10;;;;;;;1.90;1.37;;;14.90;99.90;;;;;;10328865;28;20806;-90
2023/01/03 01:16:17;;;;;;;2.93;2.13;;;15.00;99.90;;;;;;10330119;28;20258;-90
2023/01/03 01:21:23;;;;;;;2.20;1.93;;;14.70;99.90;;;;;;10311460;28;20237;-90
2023/01/03 01:26:26;;;;;;;3.73;2.40;;;14.90;99.90;;;;;;10250628;28;20242;-90
2023/01/03 01:31:28;;;;;;;2.17;1.97;;;14.70;99.90;;;;;;10259814;28;20319;-90
2023/01/03 01:36:36;;;;;;;2.63;2.23;;;14.70;99.90;;;;;;10310841;28;20333;-91
2023/01/03 01:47:02;;;;;;;2.70;2.30;;;15.60;99.90;;;;;;10288478;28;20692;-90
2023/01/03 01:52:06;;;;;;;2.53;1.83;;;15.70;99.90;;;;;;10277790;28;20241;-90
2023/01/03 01:57:13;;;;;;;2.70;2.00;;;15.20;99.90;;;;;;10288911;28;20619;-90
2023/01/03 02:02:19;;;;;;;2.23;2.03;;;15.40;99.90;;;;;;10282789;28;20231;-90
2023/01/03 02:07:23;;;;;;;2.80;2.30;;;15.40;99.90;;;;;;10310368;28;20633;-89
2023/01/03 02:13:07;;;;;;;2.63;2.27;;;15.10;99.90;;;;;;10304254;28;20245;-91
2023/01/03 02:18:38;;;;;;;2.30;1.90;;;15.30;99.90;;;;;;10288441;28;20233;-89
2023/01/03 02:24:10;;;;;;;2.63;1.47;;;15.00;99.90;;;;;;10309490;28;20218;-90
2023/01/03 02:29:39;;;;;;;2.60;2.27;;;14.80;99.90;;;;;;10294099;28;20298;-90
2023/01/03 02:35:15;;;;;;;4.20;2.30;;;15.10;99.90;;;;;;10306820;28;20267;-91
2023/01/03 02:40:24;;;;;;;3.20;2.73;;;14.70;99.90;;;;;;10303831;28;20234;-91
2023/01/03 02:45:53;;;;;;;4.23;2.90;;;14.70;99.90;;;;;;10305291;28;20215;-90
2023/01/03 02:51:01;;;;;;;3.33;3.03;;;15.00;99.90;;;;;;10246430;28;20255;-90
2023/01/03 02:56:27;;;;;;;2.67;2.23;;;14.80;99.90;;;;;;10229344;28;20297;-89
2023/01/03 03:01:31;;;;;;;3.90;3.60;;;15.00;99.90;;;;;;10236167;28;20236;-91
2023/01/03 03:06:46;;;;;;;3.80;2.33;;;14.90;99.90;;;;;;10286905;28;20241;-89
2023/01/03 03:17:18;;;;;;;2.97;2.50;;;15.30;99.90;;;;;;10308549;28;20256;-91
2023/01/03 03:33:59;;;;;;;7.03;2.27;;;15.00;99.90;;;;;;10275507;28;20656;-89
2023/01/03 03:39:05;;;;;;;2.60;2.07;;;14.80;99.90;;;;;;10277962;28;20230;-90
2023/01/03 03:49:53;;;;;;;2.53;2.10;;;15.50;99.90;;;;;;10248231;28;20758;-91
2023/01/03 03:55:05;;;;;;;2.20;1.87;;;15.10;99.90;;;;;;10273441;28;20296;-90
2023/01/03 04:00:14;;;;;;;3.10;2.37;;;15.10;99.90;;;;;;10283597;28;20818;-88
2023/01/03 04:05:22;;;;;;;2.40;2.20;;;15.50;99.90;;;;;;10222894;29;20760;-88
2023/01/03 04:10:24;;;;;;;2.50;2.30;;;15.40;99.90;;;;;;10248270;28;20238;-88
2023/01/03 04:15:27;;;;;;;2.93;2.50;;;15.70;99.90;;;;;;10195619;29;20255;-87
2023/01/03 04:20:30;;;;;;;4.53;2.43;;;15.60;99.90;;;;;;10194606;29;20267;-87
2023/01/03 04:25:33;;;;;;;5.80;2.53;;;15.30;99.90;;;;;;10243610;28;20257;-88
2023/01/03 04:30:36;;;;;;;2.73;2.30;;;15.00;99.90;;;;;;10240881;28;20303;-88
2023/01/03 04:35:39;;;;;;;2.77;1.87;;;15.30;99.90;;;;;;10257831;28;20708;-88
2023/01/03 04:40:41;;;;;;;2.67;2.30;;;15.30;99.90;;;;;;10265230;28;20297;-87
2023/01/03 04:45:46;;;;;;;2.73;2.27;;;15.50;99.90;;;;;;10289788;28;20233;-88
2023/01/03 04:50:54;;;;;;;2.03;1.80;;;15.30;99.90;;;;;;10290283;28;20288;-87
2023/01/03 04:55:56;;;;;;;5.67;2.33;;;15.80;99.90;;;;;;10286062;28;20331;-87
2023/01/03 05:01:00;;;;;;;2.83;1.87;;;15.00;99.90;;;;;;10310584;28;20246;-88
2023/01/03 05:06:06;;;;;;;2.03;1.80;;;15.20;99.90;;;;;;10271976;28;20301;-88
2023/01/03 05:11:08;;;;;;;2.03;1.70;;;15.30;99.90;;;;;;10289485;28;20240;-88
2023/01/03 05:16:13;;;;;;;2.17;1.90;;;15.00;99.90;;;;;;10298740;28;20259;-87
2023/01/03 05:26:41;;;;;;;4.40;2.13;;;14.70;99.90;;;;;;10312107;28;20230;-88
2023/01/03 05:31:44;;;;;;;2.50;1.93;;;14.50;99.90;;;;;;10300823;28;20788;-87
2023/01/03 05:36:48;;;;;;;3.27;2.30;;;14.30;99.90;;;;;;10294462;28;20324;-88
2023/01/03 05:42:08;;;;;;;2.80;2.33;;;14.50;99.90;;;;;;10276189;28;20289;-87
2023/01/03 05:47:11;;;;;;;3.40;2.60;;;14.00;99.90;;;;;;10271326;28;20232;-88
2023/01/03 05:52:13;;;;;;;1.77;1.60;;;14.00;99.90;;;;;;10271213;28;20251;-88
2023/01/03 05:57:16;;;;;;;1.83;1.63;;;13.80;99.90;;;;;;10276153;28;20260;-89
2023/01/03 06:02:18;;;;;;;2.67;2.10;;;13.60;99.90;;;;;;10263628;28;20236;-91
2023/01/03 06:07:21;;;;;;;4.30;2.40;;;14.20;99.90;;;;;;10270965;28;20295;-91
2023/01/03 06:12:26;;;;;;;1.57;1.17;;;14.30;99.90;;;;;;10285388;28;20283;-91
2023/01/03 06:22:52;;;;;;;3.00;1.77;;;14.60;99.90;;;;;;10272259;28;20303;-91
2023/01/03 06:27:55;;;;;;;3.10;2.23;;;14.10;99.90;;;;;;10279326;28;20338;-89
2023/01/03 06:32:57;;;;;;;3.83;1.53;;;14.80;99.90;;;;;;10260460;28;20257;-90
2023/01/03 06:38:00;;;;;;;3.67;1.73;;;14.80;99.90;;;;;;10268795;28;20703;-90
2023/01/03 06:43:11;;;;;;;1.73;1.23;;;14.80;94.30;;;;;;10274316;28;20271;-91
2023/01/03 06:53:38;;;;;;;3.93;1.30;;;14.30;95.80;;;;;;10241983;28;20247;-90
2023/01/03 06:58:40;;;;;;;2.33;1.57;;;14.10;96.70;;;;;;10321533;28;20946;-90
2023/01/03 07:03:43;;;;;;;3.20;2.00;;;13.70;95.80;;;;;;10289779;28;20254;-89
2023/01/03 07:08:46;;;;;;;3.33;2.07;;;13.90;94.80;;;;;;10285133;28;20249;-89
2023/01/03 07:13:59;;;;;;;1.67;1.00;;;14.30;96.20;;;;;;10284927;28;20321;-90
2023/01/03 07:19:04;;;;;;;3.23;1.77;;;13.90;95.50;;;;;;10286304;28;20234;-89
2023/01/03 07:24:09;;;;;;;2.03;1.73;;;14.00;94.30;;;;;;10285511;28;20233;-90
2023/01/03 07:29:11;;;;;;;2.47;1.73;;;13.50;96.50;;;;;;10287257;28;20231;-88
2023/01/03 07:34:14;;;;;;;3.67;2.00;;;13.40;96.50;;;;;;10323209;28;20299;-89
2023/01/03 07:39:17;;;;;;;2.87;1.17;;;13.80;96.00;;;;;;10323735;28;20239;-90
2023/01/03 07:44:19;;;;;;;2.17;1.50;;;14.00;96.00;;;;;;10311280;28;20237;-88
2023/01/03 07:49:22;;;;;;;2.20;1.13;;;14.10;99.90;;;;;;10288678;28;20304;-89
2023/01/03 07:54:24;;;;;;;1.70;1.10;;;13.70;99.40;;;;;;10313902;28;20265;-89
2023/01/03 07:59:27;;;;;;;1.47;1.27;;;13.70;99.60;;;;;;10332217;28;20759;-88
2023/01/03 08:04:29;;;;;;;2.63;1.10;;;13.40;98.40;;;;;;10296336;28;20248;-90
2023/01/03 08:14:53;;;;;;;3.13;1.30;;;14.10;98.50;;;;;;10289675;28;20260;-89
2023/01/03 08:19:55;;;;;;;1.80;1.00;;;13.70;97.10;;;;;;10288944;28;20233;-90
2023/01/03 08:24:58;;;;;;;2.80;1.30;;;14.40;99.90;;;;;;10271604;28;20305;-90
2023/01/03 08:30:01;;;;;;;2.60;1.63;;;13.80;97.30;;;;;;10285037;28;20298;-91
2023/01/03 08:35:04;;;;;;;3.67;1.83;;;14.30;91.20;;;;;;10271165;28;20243;-91
2023/01/03 08:40:10;;;;;;;3.00;1.50;;;14.60;98.60;;;;;;10257781;28;20933;-91
2023/01/03 08:45:16;;;;;;;2.40;1.63;;;14.20;98.60;;;;;;10307606;28;20273;-89
2023/01/03 08:50:19;;;;;;;1.63;1.00;;;14.50;96.00;;;;;;10290240;28;20242;-90
2023/01/03 08:55:22;;;;;;;0.80;0.70;;;14.70;95.00;;;;;;10278180;28;20253;-90
2023/01/03 09:00:25;;;;;;;1.50;0.63;;;14.90;97.00;;;;;;10288708;28;20312;-91
2023/01/03 09:05:28;;;;;;;7.07;1.87;;;14.70;98.30;;;;;;10295727;28;20285;-91
2023/01/03 09:10:31;;;;;;;1.97;1.33;;;14.00;92.20;;;;;;10313186;28;20245;-90
2023/01/03 09:15:34;;;;;;;3.43;1.30;;;14.00;97.80;;;;;;10271808;28;20327;-90
2023/01/03 09:20:36;;;;;;;3.20;1.73;;;14.50;93.50;;;;;;10288365;28;20695;-90
2023/01/03 09:25:39;;;;;;;6.27;1.43;;;14.20;92.00;;;;;;10287937;28;20241;-90
2023/01/03 09:30:42;;;;;;;1.53;1.00;;;13.60;96.80;;;;;;10289064;28;20268;-90
2023/01/03 09:35:51;;;;;;;5.27;1.13;;;14.20;99.90;;;;;;10270931;28;20265;-91
2023/01/03 09:41:04;;;;;;;1.60;0.77;;;15.10;94.50;;;;;;10306407;28;20237;-90
2023/01/03 09:46:19;;;;;;;3.53;2.07;;;14.80;99.80;;;;;;10299886;28;20563;-90
2023/01/03 10:08:05;;;;;;;1.83;1.20;;;14.70;96.10;;;;;;10292523;28;20260;-90
2023/01/03 10:13:11;;;;;;;4.77;1.53;;;14.50;97.60;;;;;;10287900;28;20283;-91
2023/01/03 10:18:58;;;;;;;2.60;1.20;;;13.30;92.20;;;;;;10286930;28;20252;-92
2023/01/03 10:24:06;;;;;;;3.93;1.43;;;14.40;99.00;;;;;;10269592;28;20280;-91
2023/01/03 10:29:12;;;;;;;1.47;1.13;;;14.50;93.80;;;;;;10316080;28;20756;-91
2023/01/03 10:34:14;;;;;;;6.10;1.30;;;14.30;95.70;;;;;;10308870;28;20322;-90
2023/01/03 10:39:29;;;;;;;1.00;0.63;;;13.20;97.00;;;;;;10306235;28;20820;-90
2023/01/03 10:44:32;;;;;;;2.80;1.30;;;14.20;95.40;;;;;;10278812;28;20291;-90
2023/01/03 10:49:35;;;;;;;2.90;1.30;;;14.00;89.00;;;;;;10268616;28;20268;-90
2023/01/03 10:54:49;;;;;;;3.73;1.60;;;13.70;96.40;;;;;;10249837;28;20265;-91
2023/01/03 10:59:51;;;;;;;4.17;1.27;;;13.50;96.20;;;;;;10325465;28;20242;-90
2023/01/03 11:05:20;;;;;;;2.20;1.17;;;12.90;93.40;;;;;;10325544;28;20296;-91
2023/01/03 11:10:29;;;;;;;3.03;1.00;;;13.30;92.70;;;;;;10314252;28;20225;-90
2023/01/03 11:15:32;;;;;;;2.03;1.20;;;13.40;91.70;;;;;;10294179;28;20311;-89
2023/01/03 11:20:46;;;;;;;4.20;2.07;;;14.00;94.60;;;;;;10333799;28;20240;-91
2023/01/03 11:25:48;;;;;;;2.73;1.67;;;14.70;90.10;;;;;;10333324;28;20244;-91
2023/01/03 11:30:55;;;;;;;4.83;1.20;;;13.60;89.20;;;;;;10309264;28;20704;-90
2023/01/03 11:36:09;;;;;;;3.40;1.60;;;13.70;92.70;;;;;;10294599;28;20257;-92
2023/01/03 11:41:17;;;;;;;2.00;1.03;;;12.60;91.50;;;;;;10292644;28;20199;-92
2023/01/03 11:46:26;;;;;;;4.67;1.00;;;14.00;99.70;;;;;;10321128;28;20236;-91
2023/01/03 11:51:37;;;;;;;2.03;0.80;;;13.90;93.20;;;;;;10331970;28;20242;-90
2023/01/03 11:56:44;;;;;;;4.33;1.20;;;15.00;94.20;;;;;;10328847;28;20259;-91
2023/01/03 12:02:12;;;;;;;3.77;1.33;;;15.30;90.20;;;;;;10280678;28;20615;-91
2023/01/03 12:07:19;;;;;;;2.70;1.30;;;13.90;93.50;;;;;;10203258;29;20363;-91
2023/01/03 12:13:06;;;;;;;3.73;1.03;;;14.50;92.10;;;;;;10196211;29;20244;-91
2023/01/03 12:18:27;;;;;;;1.33;0.70;;;13.80;85.70;;;;;;10245654;29;20348;-91
2023/01/03 12:23:37;;;;;;;2.40;1.50;;;13.30;98.80;;;;;;10166941;29;20249;-92
2023/01/03 12:28:46;;;;;;;3.00;1.00;;;14.00;81.50;;;;;;10167137;29;20734;-91
2023/01/03 12:34:45;;;;;;;2.53;1.17;;;14.70;95.00;;;;;;10206412;29;20686;-90
2023/01/03 12:39:55;;;;;;;3.80;1.33;;;14.40;90.10;;;;;;10057850;29;20238;-90
2023/01/03 12:45:07;;;;;;;4.10;1.33;;;15.20;82.20;;;;;;10169895;29;20237;-90
2023/01/03 12:50:39;;;;;;;2.13;0.90;;;14.60;94.50;;;;;;10187568;29;20239;-90
2023/01/03 12:56:07;;;;;;;2.10;0.97;;;14.50;72.60;;;;;;10205276;29;20306;-89
2023/01/03 13:01:40;;;;;;;1.30;1.00;;;13.90;82.30;;;;;;10168014;29;20247;-91
2023/01/03 13:06:53;;;;;;;3.93;1.13;;;14.00;90.20;;;;;;10202634;28;20254;-90
2023/01/03 13:12:23;;;;;;;3.30;1.57;;;13.40;90.30;;;;;;10312885;28;20284;-89
2023/01/03 13:17:27;;;;;;;1.73;1.10;;;12.90;93.30;;;;;;10323199;28;20326;-89
2023/01/03 13:22:42;;;;;;;1.70;1.17;;;14.30;92.90;;;;;;10289142;28;20803;-91
2023/01/03 13:27:49;;;;;;;3.10;1.63;;;14.10;92.60;;;;;;10286716;28;20906;-90
2023/01/03 13:33:15;;;;;;;2.00;1.10;;;13.90;90.40;;;;;;10288835;28;20270;-90
2023/01/03 13:38:23;;;;;;;2.23;0.90;;;13.80;90.30;;;;;;10286635;28;20317;-89
2023/01/03 13:43:36;;;;;;;1.10;0.90;;;14.00;89.80;;;;;;10248630;28;20238;-90
2023/01/03 13:48:57;;;;;;;0.93;0.60;;;13.70;79.30;;;;;;10286686;28;20289;-87
2023/01/03 13:54:12;;;;;;;2.27;0.90;;;14.40;77.30;;;;;;10268658;28;20706;-90
2023/01/03 13:59:17;;;;;;;2.33;1.00;;;14.50;65.20;;;;;;10270557;28;20261;-89
2023/01/03 14:05:04;;;;;;;2.47;1.50;;;14.20;64.10;;;;;;10569062;27;20533;-83
2023/01/03 14:10:36;;;;;;;8.63;2.03;;;14.80;63.90;;;;;;10568909;28;20222;-84
2023/01/03 14:15:38;;;;;;;5.73;1.77;;;14.20;64.40;;;;;;10602492;22;20704;-84
2023/01/03 14:20:46;;;;;;;3.57;1.30;;;14.30;49.90;;;;;;10519388;28;20709;-85
2023/01/03 14:25:53;;;;;;;4.40;1.50;;;13.60;56.30;;;;;;10563944;22;20259;-85
2023/01/03 14:30:56;;;;;;;5.17;1.50;;;13.40;55.40;;;;;;10449021;28;20286;-84
2023/01/03 14:36:16;;;;;;;4.10;1.70;;;13.60;62.50;;;;;;10418010;28;20410;-84
2023/01/03 14:41:27;;;;;;;5.20;1.97;;;13.30;61.50;;;;;;10424749;28;20262;-83
2023/01/03 14:46:31;;;;;;;5.37;2.13;;;12.80;59.80;;;;;;10424659;28;20254;-84
2023/01/03 14:51:35;;;;;;;4.63;1.70;;;13.10;60.40;;;;;;10438204;28;20305;-83
2023/01/03 14:56:38;;;;;;;4.87;1.77;;;14.00;54.80;;;;;;10423035;28;20222;-83
2023/01/03 15:01:42;;;;;;;4.47;1.73;;;13.40;54.00;;;;;;10421953;28;20254;-83
2023/01/03 15:07:02;;;;;;;4.60;2.00;;;12.70;53.60;;;;;;10404638;28;20257;-83
2023/01/03 15:12:15;;;;;;;3.37;1.93;;;12.20;54.80;;;;;;10400156;28;20862;-83
2023/01/03 15:17:24;;;;;;;3.63;2.17;;;11.80;60.30;;;;;;10395227;28;20239;-84
2023/01/03 15:22:40;;;;;;;3.13;2.03;;;11.10;65.30;;;;;;10395759;28;20251;-84
2023/01/03 15:27:45;;;;;;;6.67;2.17;;;11.20;66.20;;;;;;10395255;28;20266;-84
2023/01/03 15:33:23;;;;;;;3.43;1.90;;;11.70;68.90;;;;;;10394881;28;20258;-84
2023/01/03 15:38:37;;;;;;;4.13;1.90;;;11.80;66.30;;;;;;10412694;28;20241;-84
2023/01/03 15:43:40;;;;;;;5.57;2.20;;;11.70;68.60;;;;;;10394639;28;20782;-84
2023/01/03 15:48:53;;;;;;;4.53;3.07;;;10.90;68.90;;;;;;10412224;28;20235;-84
2023/01/03 15:53:56;;;;;;;4.63;2.30;;;10.60;76.70;;;;;;10393740;28;20247;-84
2023/01/03 15:59:00;;;;;;;7.83;3.93;;;;;;;;;;10418766;23;20294;-81
2023/01/03 16:04:03;;;;;;;12.67;5.37;;;6.00;95.50;;;;;;10415200;28;20247;-80
2023/01/03 16:09:05;;;;;;;7.40;4.80;;;5.20;99.90;;;;;;10434678;28;20264;-80
2023/01/03 16:14:14;;;;;;;9.53;6.67;;;;;;;;;;10418650;28;20227;-80
2023/01/03 16:19:23;;;;;;;14.07;5.73;;;4.20;99.90;;;;;;10410656;28;20234;-80
2023/01/03 16:24:26;;;;;;;8.07;6.20;;;4.00;99.90;;;;;;10410241;28;20757;-80
2023/01/03 16:29:28;;;;;;;3.43;2.77;;;3.80;99.90;;;;;;10397952;28;20265;-81
2023/01/03 16:34:31;;;;;;;5.43;3.87;;;4.70;99.90;;;;;;10405569;28;20231;-81
2023/01/03 16:39:35;;;;;;;12.43;4.00;;;6.70;99.90;;;;;;10396586;28;20289;-80
2023/01/03 16:44:45;;;;;;;6.53;3.60;;;7.40;99.90;;;;;;10381415;28;20718;-81
2023/01/03 16:49:57;;;;;;;5.97;3.70;;;8.20;99.90;;;;;;10413354;28;20227;-81
2023/01/03 16:55:11;;;;;;;8.33;4.00;;;;;;;;;;10415215;28;20236;-80
2023/01/03 17:00:23;;;;;;;7.67;3.87;;;9.40;96.20;;;;;;10425641;28;20258;-80
2023/01/03 17:05:27;;;;;;;13.37;5.50;;;9.20;97.40;;;;;;10422689;28;20226;-81
2023/01/03 17:10:37;;;;;;;10.10;5.23;;;9.20;95.50;;;;;;10414998;28;20284;-80
2023/01/03 17:15:40;;;;;;;10.30;5.20;;;9.00;98.80;;;;;;10408500;28;20239;-80
2023/01/03 17:20:43;;;;;;;10.83;6.37;;;8.80;99.20;;;;;;10409734;28;20285;-80
2023/01/03 17:25:46;;;;;;;20.47;9.37;;;8.30;99.70;;;;;;10408354;28;20779;-81
2023/01/03 17:30:50;;;;;;;9.73;5.03;;;8.60;97.10;;;;;;10407490;28;20293;-81
2023/01/03 17:35:53;;;;;;;13.70;7.23;;;8.40;98.70;;;;;;10403716;28;20644;-80
2023/01/03 17:40:56;;;;;;;10.17;5.87;;;7.80;99.90;;;;;;10421628;28;20691;-80
2023/01/03 17:51:25;;;;;;;13.57;8.40;;;6.40;99.90;;;;;;10407118;28;20257;-80
2023/01/03 17:56:28;;;;;;;13.90;7.77;;;5.80;99.90;;;;;;10406759;28;20780;-80
2023/01/03 18:01:31;;;;;;;11.10;5.97;;;5.60;99.90;;;;;;10403822;28;21010;-81
2023/01/03 18:06:34;;;;;;;12.37;6.17;;;7.50;99.90;;;;;;10404538;28;20659;-81
2023/01/03 18:11:37;;;;;;;9.83;6.67;;;8.20;99.90;;;;;;10387711;28;20227;-80
2023/01/03 18:16:39;;;;;;;9.40;6.63;;;8.70;99.90;;;;;;10405997;28;20633;-80
2023/01/03 18:21:42;;;;;;;25.00;12.67;;;9.00;98.70;;;;;;10402174;28;20259;-80
2023/01/03 18:26:48;;;;;;;32.47;17.70;;;7.50;98.10;;;;;;10380593;28;20214;-80
2023/01/03 18:31:54;;;;;;;65.73;31.50;;;6.10;99.90;;;;;;10379931;28;20240;-80
2023/01/03 18:36:57;;;;;;;62.37;34.53;;;5.90;99.90;;;;;;10403653;28;20721;-80
2023/01/03 18:47:20;;;;;;;25.93;14.80;;;6.40;99.90;;;;;;10398149;28;20257;-80
2023/01/03 18:52:41;;;;;;;12.67;7.70;;;5.00;99.90;;;;;;10386984;28;20704;-81
2023/01/03 18:57:45;;;;;;;13.00;6.23;;;;;;;;;;10396350;28;20325;-81
2023/01/03 19:02:48;;;;;;;12.03;5.37;;;8.30;99.90;;;;;;10406582;28;20309;-81
2023/01/03 19:07:52;;;;;;;13.73;6.00;;;10.30;99.90;;;;;;10401762;28;20302;-80
2023/01/03 19:12:55;;;;;;;7.73;4.87;;;10.90;99.90;;;;;;10394547;28;20236;-80
2023/01/03 19:18:00;;;;;;;10.73;6.77;;;11.50;99.90;;;;;;10402504;28;20247;-81
2023/01/03 19:23:04;;;;;;;11.93;6.40;;;11.20;97.70;;;;;;10386002;28;20258;-80
2023/01/03 19:28:10;;;;;;;11.10;6.17;;;11.10;97.40;;;;;;10410583;28;20677;-80
2023/01/03 19:33:14;;;;;;;9.60;6.60;;;11.30;95.40;;;;;;10397710;28;20409;-80
2023/01/03 19:38:17;;;;;;;12.07;9.57;;;10.80;94.60;;;;;;10393246;28;20301;-80
2023/01/03 19:43:21;;;;;;;14.13;10.40;;;7.80;92.50;;;;;;10407214;28;20310;-80
2023/01/03 19:48:25;;;;;;;18.30;11.57;;;5.80;99.90;;;;;;10381025;28;20737;-82
2023/01/03 19:53:28;;;;;;;21.57;10.93;;;;;;;;;;10405834;28;20239;-82
2023/01/03 19:58:32;;;;;;;18.23;10.73;;;;;;;;;;10419025;28;20773;-81
2023/01/03 20:03:38;;;;;;;15.97;11.20;;;4.40;99.90;;;;;;10396352;28;20285;-81
2023/01/03 20:08:41;;;;;;;15.30;10.13;;;4.00;99.90;;;;;;10391461;28;20247;-81
2023/01/03 20:13:44;;;;;;;15.37;8.73;;;3.70;99.90;;;;;;10399036;28;20357;-82
2023/01/03 20:18:47;;;;;;;16.83;8.50;;;3.40;99.90;;;;;;10390058;28;20285;-82
2023/01/03 20:23:55;;;;;;;16.53;9.00;;;3.10;99.90;;;;;;10399301;28;20312;-82
2023/01/03 20:28:59;;;;;;;16.10;9.30;;;3.00;99.90;;;;;;10401849;28;20252;-82
2023/01/03 20:34:05;;;;;;;22.63;11.03;;;2.90;99.90;;;;;;10401032;28;20617;-82
2023/01/03 20:39:29;;;;;;;13.37;6.50;;;2.80;99.90;;;;;;10378593;28;20691;-82
2023/01/03 20:44:31;;;;;;;11.63;7.30;;;3.60;99.90;;;;;;10377946;28;20258;-82
2023/01/03 20:49:35;;;;;;;15.13;7.90;;;;;;;;;;10376929;28;20231;-83
2023/01/03 20:54:39;;;;;;;15.17;7.90;;;6.30;99.90;;;;;;10402039;28;20269;-83
2023/01/03 20:59:41;;;;;;;11.53;5.73;;;7.00;99.90;;;;;;10406991;28;20278;-83
2023/01/03 21:04:44;;;;;;;14.10;6.87;;;7.80;99.90;;;;;;10408417;28;20259;-83
2023/01/03 21:09:47;;;;;;;9.27;5.77;;;8.10;99.90;;;;;;10390563;28;20296;-83
2023/01/03 21:14:49;;;;;;;9.83;6.43;;;8.20;99.90;;;;;;10414078;28;20238;-83
2023/01/03 21:19:52;;;;;;;11.07;6.57;;;8.20;99.90;;;;;;10407554;28;20684;-83
2023/01/03 21:24:54;;;;;;;12.80;8.60;;;8.30;99.90;;;;;;10379332;28;20259;-83
2023/01/03 21:29:59;;;;;;;18.40;8.73;;;7.70;99.90;;;;;;10403881;28;20303;-83
2023/01/03 21:35:01;;;;;;;14.53;8.53;;;8.40;99.90;;;;;;10406176;28;20269;-83
2023/01/03 21:40:05;;;;;;;17.10;10.80;;;8.20;99.90;;;;;;10389768;28;20227;-82
2023/01/03 21:45:11;;;;;;;36.17;20.80;;;8.60;99.90;;;;;;10392039;28;20243;-82
2023/01/03 21:50:14;;;;;;;30.57;15.53;;;8.60;99.90;;;;;;10402889;28;20282;-82
2023/01/03 21:55:17;;;;;;;17.43;11.47;;;8.60;99.90;;;;;;10399190;28;20266;-82
2023/01/03 22:00:20;;;;;;;17.37;11.30;;;8.90;99.90;;;;;;10403574;28;20992;-82
2023/01/03 22:05:23;;;;;;;27.23;12.23;;;8.90;99.90;;;;;;10391006;28;20712;-82
2023/01/03 22:10:26;;;;;;;26.53;12.43;;;9.00;99.90;;;;;;10406064;28;20223;-82
2023/01/03 22:15:28;;;;;;;24.00;12.57;;;8.80;99.90;;;;;;10405725;28;20277;-83
2023/01/03 22:20:31;;;;;;;26.30;15.77;;;8.50;99.90;;;;;;10388393;28;20992;-82
2023/01/03 22:25:40;;;;;;;40.13;19.97;;;8.80;99.90;;;;;;10412141;28;20696;-82
2023/01/03 22:30:42;;;;;;;34.80;18.37;;;7.60;99.90;;;;;;10387213;28;20245;-83
2023/01/03 22:42:20;;;;;;;35.87;18.13;;;5.40;99.90;;;;;;10399896;28;20703;-82
2023/01/03 22:47:23;;;;;;;36.17;20.33;;;4.70;99.90;;;;;;10397686;28;20277;-82
2023/01/03 22:52:25;;;;;;;32.07;18.57;;;3.80;99.90;;;;;;10395476;28;20231;-82
2023/01/03 22:57:28;;;;;;;36.67;19.30;;;3.70;99.90;;;;;;10383613;28;20255;-83
2023/01/03 23:02:32;;;;;;;30.73;18.27;;;4.00;99.90;;;;;;10376884;28;20309;-82
2023/01/03 23:07:44;;;;;;;40.57;22.43;;;4.40;99.90;;;;;;10412452;28;20235;-82
2023/01/03 23:12:59;;;;;;;44.57;22.93;;;4.20;99.90;;;;;;10412846;28;20235;-82
2023/01/03 23:18:02;;;;;;;48.67;28.77;;;3.90;99.90;;;;;;10412636;28;20247;-82
2023/01/03 23:23:04;;;;;;;53.50;29.93;;;3.70;99.90;;;;;;10398716;28;20254;-82
2023/01/03 23:28:07;;;;;;;57.33;32.13;;;3.60;99.90;;;;;;10410441;28;20235;-82
2023/01/03 23:33:09;;;;;;;62.20;34.60;;;3.40;99.90;;;;;;10394504;28;20301;-82
2023/01/03 23:38:12;;;;;;;80.93;41.53;;;3.30;99.90;;;;;;10411931;28;20624;-82
2023/01/03 23:43:14;;;;;;;74.83;37.37;;;3.40;99.90;;;;;;10411405;28;20630;-82
2023/01/03 23:48:17;;;;;;;61.83;36.23;;;3.10;99.90;;;;;;10412446;28;20241;-82
2023/01/03 23:53:20;;;;;;;58.83;34.00;;;3.20;99.90;;;;;;10409161;28;20258;-82
2023/01/03 23:58:22;;;;;;;53.77;31.33;;;3.40;99.90;;;;;;10395156;28;20329;-82
